sensor_id;sensor_type;location;lat;lon;timestamp;pressure;altitude;pressure_sealevel;temperature;humidity
72024;BME280;59889;50.700;5.440;2023-03-18T00:01:39;99349.15;;;21.58;34.02
72024;BME280;59889;50.700;5.440;2023-03-18T00:04:04;99348.85;;;21.92;33.90
72024;BME280;59889;50.700;5.440;2023-03-18T00:06:29;99343.78;;;21.69;33.91
72024;BME280;59889;50.700;5.440;2023-03-18T00:08:54;99331.84;;;21.64;33.95
72024;BME280;59889;50.700;5.440;2023-03-18T00:11:20;99315.31;;;21.83;33.72
72024;BME280;59889;50.700;5.440;2023-03-18T00:13:45;99301.85;;;21.61;33.99
72024;BME280;59889;50.700;5.440;2023-03-18T00:16:11;99285.76;;;21.97;33.84
72024;BME280;59889;50.700;5.440;2023-03-18T00:18:35;99285.41;;;21.31;34.36
72024;BME280;59889;50.700;5.440;2023-03-18T00:21:00;99287.15;;;21.55;34.06
72024;BME280;59889;50.700;5.440;2023-03-18T00:23:26;99302.00;;;21.70;33.92
72024;BME280;59889;50.700;5.440;2023-03-18T00:25:52;99304.40;;;21.75;34.17
72024;BME280;59889;50.700;5.440;2023-03-18T00:28:15;99297.34;;;21.60;34.03
72024;BME280;59889;50.700;5.440;2023-03-18T00:30:40;99296.09;;;21.73;33.89
72024;BME280;59889;50.700;5.440;2023-03-18T00:33:05;99295.75;;;21.51;34.45
72024;BME280;59889;50.700;5.440;2023-03-18T00:35:30;99296.49;;;21.67;34.26
72024;BME280;59889;50.700;5.440;2023-03-18T00:37:56;99298.52;;;21.38;34.33
72024;BME280;59889;50.700;5.440;2023-03-18T00:40:20;99294.25;;;21.70;33.95
72024;BME280;59889;50.700;5.440;2023-03-18T00:42:45;99290.30;;;21.61;34.02
72024;BME280;59889;50.700;5.440;2023-03-18T00:45:11;99293.23;;;21.91;34.00
72024;BME280;59889;50.700;5.440;2023-03-18T00:47:36;99300.06;;;21.62;34.00
72024;BME280;59889;50.700;5.440;2023-03-18T00:50:01;99307.51;;;21.53;34.15
72024;BME280;59889;50.700;5.440;2023-03-18T00:52:26;99305.22;;;21.49;33.95
72024;BME280;59889;50.700;5.440;2023-03-18T00:54:51;99308.94;;;22.03;33.84
72024;BME280;59889;50.700;5.440;2023-03-18T00:57:16;99308.58;;;21.90;33.97
72024;BME280;59889;50.700;5.440;2023-03-18T00:59:41;99313.54;;;22.10;33.81
72024;BME280;59889;50.700;5.440;2023-03-18T01:02:06;99315.65;;;22.13;33.73
72024;BME280;59889;50.700;5.440;2023-03-18T01:04:31;99315.23;;;21.57;34.17
72024;BME280;59889;50.700;5.440;2023-03-18T01:06:56;99317.84;;;22.05;33.83
72024;BME280;59889;50.700;5.440;2023-03-18T01:09:21;99321.79;;;21.90;33.73
72024;BME280;59889;50.700;5.440;2023-03-18T01:11:46;99324.92;;;21.93;33.71
72024;BME280;59889;50.700;5.440;2023-03-18T01:14:11;99327.74;;;21.94;33.69
72024;BME280;59889;50.700;5.440;2023-03-18T01:16:37;99329.77;;;21.96;33.95
72024;BME280;59889;50.700;5.440;2023-03-18T01:19:02;99330.58;;;21.52;33.93
72024;BME280;59889;50.700;5.440;2023-03-18T01:21:27;99332.16;;;21.77;33.93
72024;BME280;59889;50.700;5.440;2023-03-18T01:23:52;99335.88;;;21.69;33.99
72024;BME280;59889;50.700;5.440;2023-03-18T01:26:17;99336.70;;;21.69;34.03
72024;BME280;59889;50.700;5.440;2023-03-18T01:28:42;99331.25;;;21.82;33.89
72024;BME280;59889;50.700;5.440;2023-03-18T01:31:07;99324.57;;;21.77;33.91
72024;BME280;59889;50.700;5.440;2023-03-18T01:33:32;99323.88;;;21.83;33.88
72024;BME280;59889;50.700;5.440;2023-03-18T01:35:59;99324.04;;;21.63;33.83
72024;BME280;59889;50.700;5.440;2023-03-18T01:38:23;99320.95;;;21.74;33.95
72024;BME280;59889;50.700;5.440;2023-03-18T01:40:47;99321.18;;;21.75;33.96
72024;BME280;59889;50.700;5.440;2023-03-18T01:43:15;99325.82;;;21.89;34.08
72024;BME280;59889;50.700;5.440;2023-03-18T01:45:38;99321.78;;;21.52;33.99
72024;BME280;59889;50.700;5.440;2023-03-18T01:48:02;99321.13;;;21.71;34.02
72024;BME280;59889;50.700;5.440;2023-03-18T01:50:31;99324.90;;;21.71;34.06
72024;BME280;59889;50.700;5.440;2023-03-18T01:52:56;99321.78;;;21.80;33.99
72024;BME280;59889;50.700;5.440;2023-03-18T01:55:21;99318.57;;;21.99;34.01
72024;BME280;59889;50.700;5.440;2023-03-18T01:57:43;99319.54;;;21.70;34.04
72024;BME280;59889;50.700;5.440;2023-03-18T02:00:09;99323.47;;;22.00;33.98
72024;BME280;59889;50.700;5.440;2023-03-18T02:02:33;99326.94;;;21.82;33.95
72024;BME280;59889;50.700;5.440;2023-03-18T02:05:02;99325.51;;;21.99;33.98
72024;BME280;59889;50.700;5.440;2023-03-18T02:07:25;99322.77;;;21.63;34.10
72024;BME280;59889;50.700;5.440;2023-03-18T02:09:49;99319.00;;;22.08;33.92
72024;BME280;59889;50.700;5.440;2023-03-18T02:12:18;99317.60;;;21.74;34.05
72024;BME280;59889;50.700;5.440;2023-03-18T02:14:38;99315.09;;;21.67;34.11
72024;BME280;59889;50.700;5.440;2023-03-18T02:17:08;99317.24;;;21.65;34.13
72024;BME280;59889;50.700;5.440;2023-03-18T02:19:40;99318.55;;;22.06;33.96
72024;BME280;59889;50.700;5.440;2023-03-18T02:21:59;99319.89;;;21.87;33.89
72024;BME280;59889;50.700;5.440;2023-03-18T02:24:26;99317.59;;;21.99;34.00
72024;BME280;59889;50.700;5.440;2023-03-18T02:26:49;99320.13;;;21.82;33.96
72024;BME280;59889;50.700;5.440;2023-03-18T02:29:10;99321.09;;;21.81;33.99
72024;BME280;59889;50.700;5.440;2023-03-18T02:31:35;99322.95;;;22.02;33.97
72024;BME280;59889;50.700;5.440;2023-03-18T02:33:59;99328.54;;;21.72;34.06
72024;BME280;59889;50.700;5.440;2023-03-18T02:36:26;99332.73;;;21.81;34.00
72024;BME280;59889;50.700;5.440;2023-03-18T02:38:49;99335.27;;;21.64;34.17
72024;BME280;59889;50.700;5.440;2023-03-18T02:41:16;99337.83;;;21.65;34.21
72024;BME280;59889;50.700;5.440;2023-03-18T02:43:39;99339.04;;;21.77;34.07
72024;BME280;59889;50.700;5.440;2023-03-18T02:46:13;99339.24;;;21.81;33.98
72024;BME280;59889;50.700;5.440;2023-03-18T02:48:34;99341.33;;;21.68;34.15
72024;BME280;59889;50.700;5.440;2023-03-18T02:50:55;99343.64;;;21.62;33.95
72024;BME280;59889;50.700;5.440;2023-03-18T02:53:19;99347.91;;;22.06;34.00
72024;BME280;59889;50.700;5.440;2023-03-18T02:55:45;99349.20;;;21.76;34.03
72024;BME280;59889;50.700;5.440;2023-03-18T02:58:09;99348.12;;;22.11;34.00
72024;BME280;59889;50.700;5.440;2023-03-18T03:00:35;99352.70;;;21.65;34.19
72024;BME280;59889;50.700;5.440;2023-03-18T03:03:00;99352.59;;;22.06;34.00
72024;BME280;59889;50.700;5.440;2023-03-18T03:05:25;99355.09;;;22.01;34.10
72024;BME280;59889;50.700;5.440;2023-03-18T03:07:50;99358.32;;;21.73;34.12
72024;BME280;59889;50.700;5.440;2023-03-18T03:10:15;99362.56;;;21.72;34.10
72024;BME280;59889;50.700;5.440;2023-03-18T03:12:40;99361.98;;;21.85;34.27
72024;BME280;59889;50.700;5.440;2023-03-18T03:15:06;99364.35;;;21.75;34.09
72024;BME280;59889;50.700;5.440;2023-03-18T03:17:30;99370.04;;;21.75;34.13
72024;BME280;59889;50.700;5.440;2023-03-18T03:19:56;99371.34;;;21.95;34.17
72024;BME280;59889;50.700;5.440;2023-03-18T03:22:20;99373.63;;;22.00;34.10
72024;BME280;59889;50.700;5.440;2023-03-18T03:24:45;99374.93;;;21.71;34.16
72024;BME280;59889;50.700;5.440;2023-03-18T03:27:10;99375.91;;;21.71;34.16
72024;BME280;59889;50.700;5.440;2023-03-18T03:29:35;99376.43;;;21.52;34.15
72024;BME280;59889;50.700;5.440;2023-03-18T03:32:00;99375.67;;;21.72;34.14
72024;BME280;59889;50.700;5.440;2023-03-18T03:34:26;99378.70;;;21.74;34.19
72024;BME280;59889;50.700;5.440;2023-03-18T03:36:51;99377.47;;;21.96;34.17
72024;BME280;59889;50.700;5.440;2023-03-18T03:39:16;99379.50;;;21.62;34.30
72024;BME280;59889;50.700;5.440;2023-03-18T03:41:41;99381.30;;;21.93;34.26
72024;BME280;59889;50.700;5.440;2023-03-18T03:44:06;99382.93;;;21.97;34.16
72024;BME280;59889;50.700;5.440;2023-03-18T03:46:31;99385.71;;;21.93;34.24
72024;BME280;59889;50.700;5.440;2023-03-18T03:48:56;99386.86;;;21.70;34.26
72024;BME280;59889;50.700;5.440;2023-03-18T03:51:21;99388.62;;;21.95;34.23
72024;BME280;59889;50.700;5.440;2023-03-18T03:53:46;99386.13;;;21.75;34.24
72024;BME280;59889;50.700;5.440;2023-03-18T03:56:11;99388.43;;;21.66;34.22
72024;BME280;59889;50.700;5.440;2023-03-18T03:58:36;99389.14;;;21.74;34.23
72024;BME280;59889;50.700;5.440;2023-03-18T04:01:01;99393.46;;;21.72;34.22
72024;BME280;59889;50.700;5.440;2023-03-18T04:03:26;99398.67;;;22.02;34.13
72024;BME280;59889;50.700;5.440;2023-03-18T04:05:52;99400.07;;;21.98;34.22
72024;BME280;59889;50.700;5.440;2023-03-18T04:08:16;99402.29;;;21.95;34.13
72024;BME280;59889;50.700;5.440;2023-03-18T04:10:41;99403.79;;;21.65;34.35
72024;BME280;59889;50.700;5.440;2023-03-18T04:13:07;99400.23;;;21.73;34.28
72024;BME280;59889;50.700;5.440;2023-03-18T04:15:32;99399.17;;;21.47;34.25
72024;BME280;59889;50.700;5.440;2023-03-18T04:17:57;99405.75;;;21.88;34.34
72024;BME280;59889;50.700;5.440;2023-03-18T04:20:22;99406.07;;;21.93;34.31
72024;BME280;59889;50.700;5.440;2023-03-18T04:22:47;99405.71;;;21.76;34.26
72024;BME280;59889;50.700;5.440;2023-03-18T04:25:12;99409.76;;;21.78;34.24
72024;BME280;59889;50.700;5.440;2023-03-18T04:27:37;99414.00;;;21.71;34.30
72024;BME280;59889;50.700;5.440;2023-03-18T04:30:02;99415.98;;;21.69;34.31
72024;BME280;59889;50.700;5.440;2023-03-18T04:32:27;99418.25;;;21.99;34.26
72024;BME280;59889;50.700;5.440;2023-03-18T04:34:52;99418.43;;;21.70;34.31
72024;BME280;59889;50.700;5.440;2023-03-18T04:37:17;99421.09;;;21.99;34.30
72024;BME280;59889;50.700;5.440;2023-03-18T04:39:42;99422.78;;;21.85;34.36
72024;BME280;59889;50.700;5.440;2023-03-18T04:42:07;99422.02;;;22.09;34.37
72024;BME280;59889;50.700;5.440;2023-03-18T04:44:32;99422.61;;;21.95;34.29
72024;BME280;59889;50.700;5.440;2023-03-18T04:46:58;99419.14;;;21.60;34.35
72024;BME280;59889;50.700;5.440;2023-03-18T04:49:23;99418.14;;;21.95;34.22
72024;BME280;59889;50.700;5.440;2023-03-18T04:51:48;99423.70;;;21.94;34.34
72024;BME280;59889;50.700;5.440;2023-03-18T04:54:13;99423.43;;;21.92;34.39
72024;BME280;59889;50.700;5.440;2023-03-18T04:56:38;99422.85;;;21.84;34.38
72024;BME280;59889;50.700;5.440;2023-03-18T04:59:03;99423.07;;;21.38;34.38
72024;BME280;59889;50.700;5.440;2023-03-18T05:01:28;99420.67;;;21.83;34.34
72024;BME280;59889;50.700;5.440;2023-03-18T05:03:53;99418.75;;;21.91;34.31
72024;BME280;59889;50.700;5.440;2023-03-18T05:06:21;99421.44;;;21.94;34.18
72024;BME280;59889;50.700;5.440;2023-03-18T05:08:43;99423.42;;;22.02;34.05
72024;BME280;59889;50.700;5.440;2023-03-18T05:11:08;99425.27;;;21.99;34.14
72024;BME280;59889;50.700;5.440;2023-03-18T05:13:33;99426.40;;;21.67;34.21
72024;BME280;59889;50.700;5.440;2023-03-18T05:15:58;99426.11;;;21.98;34.13
72024;BME280;59889;50.700;5.440;2023-03-18T05:18:23;99425.44;;;21.64;34.18
72024;BME280;59889;50.700;5.440;2023-03-18T05:20:49;99425.08;;;21.95;34.10
72024;BME280;59889;50.700;5.440;2023-03-18T05:23:13;99422.60;;;21.99;34.04
72024;BME280;59889;50.700;5.440;2023-03-18T05:25:39;99419.20;;;21.96;34.10
72024;BME280;59889;50.700;5.440;2023-03-18T05:28:04;99418.87;;;21.85;34.23
72024;BME280;59889;50.700;5.440;2023-03-18T05:30:29;99418.23;;;21.95;34.13
72024;BME280;59889;50.700;5.440;2023-03-18T05:32:54;99419.74;;;21.95;34.12
72024;BME280;59889;50.700;5.440;2023-03-18T05:35:19;99420.21;;;21.94;34.09
72024;BME280;59889;50.700;5.440;2023-03-18T05:37:44;99418.22;;;21.82;34.25
72024;BME280;59889;50.700;5.440;2023-03-18T05:40:10;99418.34;;;21.85;34.25
72024;BME280;59889;50.700;5.440;2023-03-18T05:42:34;99414.31;;;21.90;34.13
72024;BME280;59889;50.700;5.440;2023-03-18T05:44:59;99414.51;;;21.64;34.17
72024;BME280;59889;50.700;5.440;2023-03-18T05:47:24;99415.73;;;21.88;34.13
72024;BME280;59889;50.700;5.440;2023-03-18T05:49:49;99417.26;;;21.65;34.16
72024;BME280;59889;50.700;5.440;2023-03-18T05:52:14;99422.18;;;21.88;34.19
72024;BME280;59889;50.700;5.440;2023-03-18T05:54:39;99426.75;;;21.68;34.13
72024;BME280;59889;50.700;5.440;2023-03-18T05:57:05;99431.39;;;21.55;34.26
72024;BME280;59889;50.700;5.440;2023-03-18T05:59:30;99432.60;;;21.58;34.25
72024;BME280;59889;50.700;5.440;2023-03-18T06:01:55;99433.27;;;21.86;34.21
72024;BME280;59889;50.700;5.440;2023-03-18T06:04:20;99435.28;;;21.80;34.66
72024;BME280;59889;50.700;5.440;2023-03-18T06:06:45;99432.12;;;21.46;34.91
72024;BME280;59889;50.700;5.440;2023-03-18T06:09:11;99431.53;;;21.42;34.85
72024;BME280;59889;50.700;5.440;2023-03-18T06:11:35;99434.15;;;21.37;34.79
72024;BME280;59889;50.700;5.440;2023-03-18T06:14:00;99435.68;;;21.58;34.73
72024;BME280;59889;50.700;5.440;2023-03-18T06:16:26;99435.11;;;21.57;34.68
72024;BME280;59889;50.700;5.440;2023-03-18T06:18:50;99435.41;;;21.53;34.63
72024;BME280;59889;50.700;5.440;2023-03-18T06:21:16;99433.33;;;21.52;34.56
72024;BME280;59889;50.700;5.440;2023-03-18T06:23:40;99435.95;;;21.48;34.52
72024;BME280;59889;50.700;5.440;2023-03-18T06:26:06;99438.58;;;21.49;34.45
72024;BME280;59889;50.700;5.440;2023-03-18T06:28:31;99441.54;;;21.50;34.38
72024;BME280;59889;50.700;5.440;2023-03-18T06:30:56;99439.10;;;21.45;34.40
72024;BME280;59889;50.700;5.440;2023-03-18T06:33:21;99434.13;;;21.47;34.29
72024;BME280;59889;50.700;5.440;2023-03-18T06:35:46;99435.69;;;21.48;34.25
72024;BME280;59889;50.700;5.440;2023-03-18T06:38:11;99439.53;;;21.27;34.17
72024;BME280;59889;50.700;5.440;2023-03-18T06:40:36;99441.48;;;21.28;34.13
72024;BME280;59889;50.700;5.440;2023-03-18T06:43:01;99443.00;;;21.54;34.07
72024;BME280;59889;50.700;5.440;2023-03-18T06:45:26;99444.33;;;21.60;33.96
72024;BME280;59889;50.700;5.440;2023-03-18T06:47:51;99443.09;;;21.54;34.01
72024;BME280;59889;50.700;5.440;2023-03-18T06:50:18;99447.36;;;21.51;34.00
72024;BME280;59889;50.700;5.440;2023-03-18T06:52:41;99447.73;;;21.56;33.94
72024;BME280;59889;50.700;5.440;2023-03-18T06:55:08;99449.93;;;21.56;33.89
72024;BME280;59889;50.700;5.440;2023-03-18T06:57:32;99451.72;;;21.54;33.88
72024;BME280;59889;50.700;5.440;2023-03-18T06:59:57;99451.40;;;21.34;33.80
72024;BME280;59889;50.700;5.440;2023-03-18T07:02:22;99453.41;;;21.62;33.75
72024;BME280;59889;50.700;5.440;2023-03-18T07:04:47;99453.43;;;21.62;33.74
72024;BME280;59889;50.700;5.440;2023-03-18T07:07:12;99453.86;;;21.68;33.60
72024;BME280;59889;50.700;5.440;2023-03-18T07:09:37;99454.06;;;21.67;33.60
72024;BME280;59889;50.700;5.440;2023-03-18T07:12:02;99452.43;;;21.79;33.44
72024;BME280;59889;50.700;5.440;2023-03-18T07:14:27;99456.75;;;21.61;33.35
72024;BME280;59889;50.700;5.440;2023-03-18T07:16:52;99458.05;;;21.76;33.15
72024;BME280;59889;50.700;5.440;2023-03-18T07:19:17;99461.46;;;22.13;32.69
72024;BME280;59889;50.700;5.440;2023-03-18T07:21:42;99463.58;;;22.55;31.88
72024;BME280;59889;50.700;5.440;2023-03-18T07:24:08;99465.84;;;23.24;31.07
72024;BME280;59889;50.700;5.440;2023-03-18T07:26:33;99466.50;;;23.48;30.54
72024;BME280;59889;50.700;5.440;2023-03-18T07:28:58;99466.13;;;24.06;30.01
72024;BME280;59889;50.700;5.440;2023-03-18T07:31:23;99466.27;;;24.32;29.24
72024;BME280;59889;50.700;5.440;2023-03-18T07:33:48;99469.72;;;25.10;28.46
72024;BME280;59889;50.700;5.440;2023-03-18T07:36:13;99476.80;;;24.81;29.02
72024;BME280;59889;50.700;5.440;2023-03-18T07:38:38;99477.49;;;24.25;29.59
72024;BME280;59889;50.700;5.440;2023-03-18T07:41:03;99478.65;;;23.52;30.43
72024;BME280;59889;50.700;5.440;2023-03-18T07:43:28;99482.77;;;23.75;30.30
72024;BME280;59889;50.700;5.440;2023-03-18T07:45:53;99487.73;;;24.70;29.04
72024;BME280;59889;50.700;5.440;2023-03-18T07:48:18;99483.94;;;25.70;28.05
72024;BME280;59889;50.700;5.440;2023-03-18T07:50:43;99482.62;;;25.63;27.65
72024;BME280;59889;50.700;5.440;2023-03-18T07:53:08;99486.37;;;26.17;27.17
72024;BME280;59889;50.700;5.440;2023-03-18T07:55:33;99490.77;;;25.77;27.95
72024;BME280;59889;50.700;5.440;2023-03-18T07:57:58;99490.74;;;25.07;28.73
72024;BME280;59889;50.700;5.440;2023-03-18T08:00:23;99493.77;;;24.02;30.45
72024;BME280;59889;50.700;5.440;2023-03-18T08:02:48;99491.28;;;23.13;31.84
72024;BME280;59889;50.700;5.440;2023-03-18T08:05:13;99489.97;;;22.61;32.81
72024;BME280;59889;50.700;5.440;2023-03-18T08:07:38;99491.89;;;22.14;33.53
72024;BME280;59889;50.700;5.440;2023-03-18T08:10:05;99496.27;;;22.29;33.82
72024;BME280;59889;50.700;5.440;2023-03-18T08:12:29;99498.37;;;21.94;34.31
72024;BME280;59889;50.700;5.440;2023-03-18T08:14:54;99500.02;;;21.36;35.12
72024;BME280;59889;50.700;5.440;2023-03-18T08:17:19;99496.62;;;21.98;34.95
72024;BME280;59889;50.700;5.440;2023-03-18T08:19:44;99493.69;;;21.76;34.91
72024;BME280;59889;50.700;5.440;2023-03-18T08:22:09;99494.14;;;21.03;36.03
72024;BME280;59889;50.700;5.440;2023-03-18T08:24:34;99492.96;;;21.47;35.84
72024;BME280;59889;50.700;5.440;2023-03-18T08:26:59;99490.03;;;21.53;35.81
72024;BME280;59889;50.700;5.440;2023-03-18T08:29:24;99495.25;;;21.27;36.20
72024;BME280;59889;50.700;5.440;2023-03-18T08:31:49;99495.53;;;21.33;36.26
72024;BME280;59889;50.700;5.440;2023-03-18T08:34:14;99491.92;;;21.06;36.66
72024;BME280;59889;50.700;5.440;2023-03-18T08:36:41;99496.20;;;21.35;36.66
72024;BME280;59889;50.700;5.440;2023-03-18T08:39:04;99499.81;;;21.69;35.93
72024;BME280;59889;50.700;5.440;2023-03-18T08:41:30;99499.42;;;21.68;36.25
72024;BME280;59889;50.700;5.440;2023-03-18T08:43:55;99501.60;;;21.60;36.48
72024;BME280;59889;50.700;5.440;2023-03-18T08:46:20;99501.13;;;21.59;36.53
72024;BME280;59889;50.700;5.440;2023-03-18T08:48:45;99507.80;;;21.74;36.20
72024;BME280;59889;50.700;5.440;2023-03-18T08:51:10;99513.70;;;22.05;35.73
72024;BME280;59889;50.700;5.440;2023-03-18T08:53:35;99515.84;;;21.46;36.41
72024;BME280;59889;50.700;5.440;2023-03-18T08:56:00;99514.35;;;21.49;36.53
72024;BME280;59889;50.700;5.440;2023-03-18T08:58:25;99512.62;;;21.80;35.22
72024;BME280;59889;50.700;5.440;2023-03-18T09:00:54;99518.87;;;21.92;35.77
72024;BME280;59889;50.700;5.440;2023-03-18T09:03:15;99525.09;;;22.13;35.48
72024;BME280;59889;50.700;5.440;2023-03-18T09:05:40;99518.30;;;22.04;35.66
72024;BME280;59889;50.700;5.440;2023-03-18T09:08:05;99516.85;;;22.14;35.53
72024;BME280;59889;50.700;5.440;2023-03-18T09:10:31;99514.10;;;22.37;35.55
72024;BME280;59889;50.700;5.440;2023-03-18T09:12:56;99518.75;;;22.35;35.57
72024;BME280;59889;50.700;5.440;2023-03-18T09:15:21;99513.30;;;22.45;35.43
72024;BME280;59889;50.700;5.440;2023-03-18T09:17:46;99512.58;;;22.15;35.45
72024;BME280;59889;50.700;5.440;2023-03-18T09:20:14;99510.14;;;22.46;35.36
72024;BME280;59889;50.700;5.440;2023-03-18T09:22:37;99507.29;;;22.15;35.50
72024;BME280;59889;50.700;5.440;2023-03-18T09:25:01;99505.90;;;22.30;35.62
72024;BME280;59889;50.700;5.440;2023-03-18T09:27:26;99504.80;;;22.16;35.54
72024;BME280;59889;50.700;5.440;2023-03-18T09:29:51;99500.21;;;22.41;35.51
72024;BME280;59889;50.700;5.440;2023-03-18T09:32:16;99496.77;;;22.08;35.61
72024;BME280;59889;50.700;5.440;2023-03-18T09:34:41;99505.27;;;22.08;35.66
72024;BME280;59889;50.700;5.440;2023-03-18T09:37:06;99510.07;;;22.04;35.69
72024;BME280;59889;50.700;5.440;2023-03-18T09:39:31;99512.33;;;22.33;35.69
72024;BME280;59889;50.700;5.440;2023-03-18T09:42:08;99511.17;;;22.06;35.63
72024;BME280;59889;50.700;5.440;2023-03-18T09:44:23;99510.91;;;22.35;35.59
72024;BME280;59889;50.700;5.440;2023-03-18T09:46:57;99508.15;;;22.04;35.76
72024;BME280;59889;50.700;5.440;2023-03-18T09:49:26;99507.71;;;22.10;35.83
72024;BME280;59889;50.700;5.440;2023-03-18T09:51:44;99503.36;;;22.09;35.92
72024;BME280;59889;50.700;5.440;2023-03-18T09:54:04;99505.86;;;22.45;35.84
72024;BME280;59889;50.700;5.440;2023-03-18T09:56:29;99508.82;;;22.17;35.96
72024;BME280;59889;50.700;5.440;2023-03-18T09:58:56;99516.41;;;22.14;36.01
72024;BME280;59889;50.700;5.440;2023-03-18T10:01:18;99525.53;;;22.10;36.06
72024;BME280;59889;50.700;5.440;2023-03-18T10:03:44;99531.33;;;22.14;36.00
72024;BME280;59889;50.700;5.440;2023-03-18T10:06:14;99534.42;;;22.28;36.25
72024;BME280;59889;50.700;5.440;2023-03-18T10:08:44;99533.99;;;22.01;36.27
72024;BME280;59889;50.700;5.440;2023-03-18T10:11:02;99535.92;;;22.27;36.28
72024;BME280;59889;50.700;5.440;2023-03-18T10:13:28;99536.40;;;22.06;36.18
72024;BME280;59889;50.700;5.440;2023-03-18T10:15:52;99532.63;;;22.00;36.28
72024;BME280;59889;50.700;5.440;2023-03-18T10:18:17;99531.19;;;22.16;36.40
72024;BME280;59889;50.700;5.440;2023-03-18T10:20:51;99532.31;;;22.16;36.40
72024;BME280;59889;50.700;5.440;2023-03-18T10:23:10;99534.39;;;22.19;36.36
72024;BME280;59889;50.700;5.440;2023-03-18T10:25:34;99532.91;;;21.88;36.49
72024;BME280;59889;50.700;5.440;2023-03-18T10:28:03;99527.70;;;21.92;36.40
72024;BME280;59889;50.700;5.440;2023-03-18T10:30:31;99528.01;;;21.94;36.43
72024;BME280;59889;50.700;5.440;2023-03-18T10:32:50;99537.35;;;21.87;36.46
72024;BME280;59889;50.700;5.440;2023-03-18T10:35:18;99544.72;;;21.83;36.54
72024;BME280;59889;50.700;5.440;2023-03-18T10:37:41;99550.87;;;21.82;36.63
72024;BME280;59889;50.700;5.440;2023-03-18T10:39:59;99550.66;;;22.02;36.62
72024;BME280;59889;50.700;5.440;2023-03-18T10:42:26;99552.93;;;22.13;36.50
72024;BME280;59889;50.700;5.440;2023-03-18T10:44:50;99554.33;;;21.82;36.58
72024;BME280;59889;50.700;5.440;2023-03-18T10:47:18;99557.57;;;22.05;36.64
72024;BME280;59889;50.700;5.440;2023-03-18T10:49:43;99554.05;;;21.85;36.62
72024;BME280;59889;50.700;5.440;2023-03-18T10:52:12;99552.01;;;22.07;36.57
72024;BME280;59889;50.700;5.440;2023-03-18T10:54:35;99551.50;;;22.12;36.49
72024;BME280;59889;50.700;5.440;2023-03-18T10:56:55;99549.60;;;22.04;36.56
72024;BME280;59889;50.700;5.440;2023-03-18T10:59:22;99553.34;;;22.07;36.54
72024;BME280;59889;50.700;5.440;2023-03-18T11:01:49;99558.26;;;21.92;36.39
72024;BME280;59889;50.700;5.440;2023-03-18T11:04:13;99562.75;;;22.10;36.51
72024;BME280;59889;50.700;5.440;2023-03-18T11:06:40;99559.67;;;22.05;36.60
72024;BME280;59889;50.700;5.440;2023-03-18T11:09:04;99562.47;;;22.10;36.57
72024;BME280;59889;50.700;5.440;2023-03-18T11:11:28;99562.02;;;21.83;36.63
72024;BME280;59889;50.700;5.440;2023-03-18T11:13:53;99561.04;;;21.84;36.58
72024;BME280;59889;50.700;5.440;2023-03-18T11:16:22;99555.91;;;22.08;36.51
72024;BME280;59889;50.700;5.440;2023-03-18T11:18:43;99556.69;;;22.09;36.58
72024;BME280;59889;50.700;5.440;2023-03-18T11:21:06;99549.54;;;22.05;36.68
72024;BME280;59889;50.700;5.440;2023-03-18T11:23:33;99550.55;;;22.05;36.67
72024;BME280;59889;50.700;5.440;2023-03-18T11:26:01;99550.61;;;22.01;36.78
72024;BME280;59889;50.700;5.440;2023-03-18T11:28:26;99554.82;;;22.02;36.68
72024;BME280;59889;50.700;5.440;2023-03-18T11:30:48;99553.89;;;21.98;36.67
72024;BME280;59889;50.700;5.440;2023-03-18T11:33:13;99550.00;;;21.92;36.86
72024;BME280;59889;50.700;5.440;2023-03-18T11:35:39;99554.53;;;22.02;36.67
72024;BME280;59889;50.700;5.440;2023-03-18T11:38:02;99552.96;;;21.99;36.72
72024;BME280;59889;50.700;5.440;2023-03-18T11:40:27;99552.90;;;22.00;36.70
72024;BME280;59889;50.700;5.440;2023-03-18T11:42:54;99552.97;;;21.95;36.69
72024;BME280;59889;50.700;5.440;2023-03-18T11:45:30;99550.89;;;22.13;36.52
72024;BME280;59889;50.700;5.440;2023-03-18T11:47:43;99548.19;;;22.08;36.67
72024;BME280;59889;50.700;5.440;2023-03-18T11:50:15;99550.20;;;22.28;36.76
72024;BME280;59889;50.700;5.440;2023-03-18T11:52:39;99546.06;;;22.05;36.77
72024;BME280;59889;50.700;5.440;2023-03-18T11:55:03;99545.11;;;22.09;36.71
72024;BME280;59889;50.700;5.440;2023-03-18T11:57:27;99547.41;;;22.06;36.79
72024;BME280;59889;50.700;5.440;2023-03-18T11:59:58;99544.37;;;22.06;36.83
72024;BME280;59889;50.700;5.440;2023-03-18T12:04:50;99545.88;;;22.11;36.76
72024;BME280;59889;50.700;5.440;2023-03-18T12:07:13;99546.21;;;22.08;36.77
72024;BME280;59889;50.700;5.440;2023-03-18T12:09:33;99541.90;;;22.07;36.73
72024;BME280;59889;50.700;5.440;2023-03-18T12:12:00;99538.92;;;22.08;36.81
72024;BME280;59889;50.700;5.440;2023-03-18T12:14:23;99538.01;;;22.11;36.75
72024;BME280;59889;50.700;5.440;2023-03-18T12:16:54;99535.56;;;21.88;36.81
72024;BME280;59889;50.700;5.440;2023-03-18T12:21:49;99526.53;;;22.12;36.73
72024;BME280;59889;50.700;5.440;2023-03-18T12:24:10;99519.99;;;21.85;36.77
72024;BME280;59889;50.700;5.440;2023-03-18T12:26:28;99516.89;;;21.81;36.86
72024;BME280;59889;50.700;5.440;2023-03-18T12:29:05;99515.30;;;21.84;36.79
72024;BME280;59889;50.700;5.440;2023-03-18T12:31:29;99515.23;;;22.08;36.79
72024;BME280;59889;50.700;5.440;2023-03-18T12:33:48;99516.36;;;22.07;36.79
72024;BME280;59889;50.700;5.440;2023-03-18T12:36:12;99514.70;;;22.10;36.77
72024;BME280;59889;50.700;5.440;2023-03-18T12:38:44;99519.71;;;22.09;36.80
72024;BME280;59889;50.700;5.440;2023-03-18T12:41:00;99517.69;;;21.87;36.75
72024;BME280;59889;50.700;5.440;2023-03-18T12:43:31;99521.79;;;22.08;36.81
72024;BME280;59889;50.700;5.440;2023-03-18T12:45:46;99518.91;;;21.83;36.82
72024;BME280;59889;50.700;5.440;2023-03-18T12:48:12;99518.52;;;21.86;36.76
72024;BME280;59889;50.700;5.440;2023-03-18T12:50:38;99516.74;;;22.08;36.77
72024;BME280;59889;50.700;5.440;2023-03-18T12:53:02;99516.43;;;21.83;36.83